Decoded Metar for LEIB (IBIZA in SPAIN) (IATA:IBZ) | Meteo·Mobile Aviation Weather
aviador You're here:

LEIB Decoded Metar

IBIZA in SPAIN
Report Time2018-10-22 13:30:00
UTC Time2018-10-22 13:52:57
Flight Rules vfr VFR
Wind020° at 09 kt
W.Decomp.*RWY 06: 6.9 kt HW 5.8 kt LCW
W.Rank020° ranks 15
Current wind is above 020° avg. (7.1)
Visibility9999 m
Phenomena:N/A
Clouds:Few 035 Hf
Expected CloudBase > 3,600 ft AGL from Temp-Dew spread
CeilingNone
Temp25°C (ISA +10)
Dew Point16°C (57% RH)
AAT23.7°C
QNH1019 hPa
Density Alt1,247 ft
Elevation39 ft
Report Wrong Elevation
Raw Report
LEIB 221330Z 02009KT 350V070 9999 FEW035 25/16 Q1019 NOSIG=

Extra information for LEIB:More info

Metar Taf Metar & Taf Last 4 Metars F.Rules Stats Wind Profile Meteogram Temp Stats Airport Information Weather charts Add Link Nearby VenuesMetar ALERT Operation Metar Decoded Social comments